Bei Facebook empfehlenBei Twitter postenGoogle plusPinterest

Das Wetter im Erzgebirge am 20.10.2016

Wetter und Klima am 20.10.2016 Holzhau im Erzgebirge (630m ü.NN)
Letzte gemessene Temperatur und Uhrzeit der Messung23:45:00 Uhr3.60 °C
Temperatur (Maximum / Höchstwert) und Uhrzeit der Messung13:00:00 Uhr9.80 °C
Temperatur (Minimum / Tiefstwert) und Uhrzeit der Messung23:45:003.60 °C
Errechneter Absolutwert der Temperaturschwankungen zwischen Tmin und Tmax des Tages6.20 K
Errechnete Tagesmitteltemperatur5.43750 °C
Gesamt - Niederschlag des Tages (in flüssiger Form)4.66 Liter / m²
Luftdruck (Maximum / Höchstwert) und Zeitpunkt der Messung00:00:00 Uhr1010.70 hPa
Luftdruck (Minimum / Tiefstwert) und Zeitpunkt der Messung23:30:00 Uhr1007.70 hPa
Errechneter Absolutwert der Luftdruckschwankungen des Tages3.00 hPa
Höchste gemessene Windgeschwindigkeit und Uhrzeit der Messung23:45:00 Uhr0.00 km/h
Errechnete Windhäufigkeit in Relation zu den Messwerten des Tages0.00000 %
Niedrigste Windkühle (Windchill) und Zeitpunkt der Messung23:45:00 Uhr3.60 °C
Taupunkt (Maximum / Höchstwert) und Uhrzeit der Messung13:00:00 Uhr8.20 °C
Taupunkt (Minimum / Tiefstwert) und Uhrzeit der Messung20:00:002.30 °C
Anzahl der automatisch eingelesenen Messwerte 96

Detaillierte Wetter- und Klima- Messwerte für den 20.10.2016 in Holzhau im Erzgebirge (630m ü.NN)
ZeitTemperaturLuftdruckRel. LuftfeuchteWindWindrichtungWindchillTaupunktNiederschlag l/m²
23:45:003.60 °C1007.80 hPa93.00 %2.60 °C4.66
23:30:003.60 °C1007.70 hPa93.00 %2.60 °C4.66
23:15:003.60 °C1007.80 hPa93.00 %2.60 °C4.66
23:00:003.60 °C1007.80 hPa93.00 %2.60 °C4.66
22:45:003.60 °C1007.80 hPa93.00 %2.60 °C4.66
22:30:003.60 °C1007.80 hPa93.00 %2.60 °C4.66
22:15:003.60 °C1007.70 hPa93.00 %2.60 °C4.66
22:00:003.70 °C1007.70 hPa92.00 %2.50 °C4.66
21:45:003.70 °C1007.80 hPa92.00 %2.50 °C4.66
21:30:003.70 °C1007.80 hPa92.00 %2.50 °C4.66
21:15:003.80 °C1007.90 hPa92.00 %2.60 °C4.14
21:00:003.90 °C1007.90 hPa92.00 %2.70 °C3.62
20:45:003.90 °C1007.70 hPa92.00 %2.70 °C3.62
20:30:003.90 °C1007.80 hPa92.00 %2.70 °C3.62
20:15:003.80 °C1007.80 hPa91.00 %2.50 °C3.62
20:00:003.80 °C1007.90 hPa90.00 %2.30 °C3.62
19:45:003.90 °C1008.20 hPa90.00 %2.40 °C3.11
19:30:004.50 °C1008.70 hPa90.00 %3.00 °C2.59
19:15:004.90 °C1008.10 hPa90.00 %3.40 °C2.59
19:00:004.90 °C1007.90 hPa89.00 %3.20 °C2.07
18:45:005.10 °C1008.00 hPa88.00 %3.30 °C2.07
18:30:005.30 °C1008.00 hPa88.00 %3.50 °C1.55
18:15:005.50 °C1008.10 hPa88.00 %3.70 °C1.55
18:00:005.60 °C1008.10 hPa87.00 %3.60 °C1.55
17:45:005.90 °C1008.40 hPa87.00 %3.90 °C1.55
17:30:006.10 °C1008.50 hPa86.00 %3.90 °C1.55
17:15:006.40 °C1008.60 hPa86.00 %4.20 °C1.55
17:00:006.70 °C1008.60 hPa85.00 %4.40 °C1.55
16:45:007.10 °C1008.70 hPa84.00 %4.60 °C1.55
16:30:007.40 °C1008.70 hPa84.00 %4.90 °C1.55
16:15:007.50 °C1008.70 hPa83.00 %4.80 °C1.55
16:00:007.80 °C1008.80 hPa83.00 %5.10 °C1.55
15:45:008.10 °C1008.70 hPa82.00 %5.20 °C1.55
15:30:008.50 °C1008.80 hPa83.00 %5.80 °C1.55
15:15:008.60 °C1008.90 hPa84.00 %6.10 °C1.55
15:00:008.40 °C1009.00 hPa86.00 %6.20 °C1.55
14:45:007.80 °C1009.10 hPa86.00 %5.60 °C1.55
14:30:007.60 °C1009.00 hPa85.00 %5.20 °C1.55
14:15:008.10 °C1009.10 hPa85.00 %5.70 °C1.55
14:00:008.40 °C1009.20 hPa85.00 %6.00 °C1.55
13:45:008.50 °C1009.40 hPa85.00 %6.10 °C1.55
13:30:008.70 °C1009.60 hPa86.00 %6.50 °C1.55
13:15:009.00 °C1009.60 hPa87.00 %7.00 °C1.55
13:00:009.80 °C1009.40 hPa90.00 %8.20 °C1.55
12:45:009.00 °C1009.50 hPa92.00 %7.80 °C1.55
12:30:008.20 °C1009.80 hPa93.00 %7.10 °C1.55
12:15:007.80 °C1009.90 hPa93.00 %6.70 °C1.55
12:00:007.80 °C1010.00 hPa94.00 %6.90 °C1.55
11:45:006.90 °C1009.80 hPa94.00 %6.00 °C1.55
11:30:006.40 °C1009.90 hPa94.00 %5.50 °C1.55
11:15:006.40 °C1009.90 hPa95.00 %5.70 °C1.55
11:00:006.60 °C1009.80 hPa95.00 %5.90 °C1.55
10:45:006.90 °C1009.90 hPa95.00 %6.20 °C1.55
10:30:006.90 °C1010.00 hPa95.00 %6.20 °C1.55
10:15:006.40 °C1010.00 hPa95.00 %5.70 °C1.55
10:00:005.60 °C1010.20 hPa95.00 %4.90 °C1.55
09:45:004.80 °C1010.20 hPa95.00 %4.10 °C1.55
09:30:004.30 °C1010.00 hPa94.00 %3.40 °C1.55
09:15:004.20 °C1010.00 hPa94.00 %3.30 °C1.55
09:00:004.10 °C1010.10 hPa94.00 %3.20 °C1.55
08:45:004.10 °C1010.10 hPa94.00 %3.20 °C1.55
08:30:004.00 °C1009.90 hPa94.00 %3.10 °C1.55
08:15:004.10 °C1009.80 hPa94.00 %3.20 °C1.03
08:00:004.10 °C1010.00 hPa94.00 %3.20 °C1.03
07:45:004.10 °C1009.90 hPa94.00 %3.20 °C0.52
07:30:004.30 °C1009.90 hPa94.00 %3.40 °C0.52
07:15:004.50 °C1009.70 hPa94.00 %3.60 °C0.52
07:00:004.70 °C1009.70 hPa94.00 %3.80 °C 
06:45:004.70 °C1009.50 hPa94.00 %3.80 °C 
06:30:004.80 °C1009.40 hPa94.00 %3.90 °C 
06:15:005.10 °C1009.40 hPa94.00 %4.20 °C 
06:00:005.30 °C1009.40 hPa94.00 %4.40 °C 
05:45:005.20 °C1009.30 hPa94.00 %4.30 °C 
05:30:005.20 °C1009.30 hPa94.00 %4.30 °C 
05:15:005.20 °C1009.40 hPa94.00 %4.30 °C 
05:00:005.20 °C1009.40 hPa94.00 %4.30 °C 
04:45:005.10 °C1009.50 hPa94.00 %4.20 °C 
04:30:005.10 °C1009.50 hPa94.00 %4.20 °C 
04:15:005.10 °C1009.60 hPa94.00 %4.20 °C 
04:00:004.90 °C1009.70 hPa94.00 %4.00 °C 
03:45:004.60 °C1009.70 hPa94.00 %3.70 °C 
03:30:004.40 °C1009.80 hPa94.00 %3.50 °C 
03:15:004.40 °C1009.80 hPa94.00 %3.50 °C 
03:00:004.50 °C1009.90 hPa94.00 %3.60 °C 
02:45:004.40 °C1009.90 hPa94.00 %3.50 °C 
02:30:004.10 °C1010.10 hPa94.00 %3.20 °C 
02:15:004.10 °C1010.20 hPa94.00 %3.20 °C 
02:00:004.20 °C1010.20 hPa94.00 %3.30 °C 
01:45:004.30 °C1010.30 hPa94.00 %3.40 °C 
01:30:004.40 °C1010.40 hPa94.00 %3.50 °C 
01:15:004.30 °C1010.50 hPa94.00 %3.40 °C 
01:00:004.10 °C1010.60 hPa94.00 %3.20 °C 
00:45:004.20 °C1010.30 hPa93.00 %3.20 °C 
00:30:004.40 °C1010.50 hPa93.00 %3.40 °C 
00:15:004.50 °C1010.60 hPa93.00 %3.50 °C 
00:00:004.50 °C1010.70 hPa93.00 %3.50 °C 

Permanenter Link zu dieser Seite: Wetter im Erzgebirge am 20.10.2016
Performance-Info: Die Erstellung der Seite / Statistik(en) / Tabelle(n) erforderte 5 Datenbankserver-Abfrage(n) und dauerte 94 Millisekunden. (Dieser Messwert ist von der Gesamt-Auslastung des Servers abhängig.)
Erzgebirge - Wetter | Erzgebirge - Wetter (Mobilgeräte) | Komplette Klimadatenbank